sensor_id;sensor_type;location;lat;lon;timestamp;P1;durP1;ratioP1;P2;durP2;ratioP2
32872;SDS011;19224;52.462;16.898;2023-08-12T00:01:12;10.28;;;4.80;;
32872;SDS011;19224;52.462;16.898;2023-08-12T00:03:43;10.80;;;5.67;;
32872;SDS011;19224;52.462;16.898;2023-08-12T00:06:13;9.60;;;5.20;;
32872;SDS011;19224;52.462;16.898;2023-08-12T00:08:43;9.55;;;5.40;;
32872;SDS011;19224;52.462;16.898;2023-08-12T00:11:14;9.25;;;5.33;;
32872;SDS011;19224;52.462;16.898;2023-08-12T00:13:44;8.10;;;5.37;;
32872;SDS011;19224;52.462;16.898;2023-08-12T00:16:14;8.25;;;4.95;;
32872;SDS011;19224;52.462;16.898;2023-08-12T00:18:44;11.40;;;5.08;;
32872;SDS011;19224;52.462;16.898;2023-08-12T00:21:15;20.23;;;5.50;;
32872;SDS011;19224;52.462;16.898;2023-08-12T00:23:45;11.97;;;5.22;;
32872;SDS011;19224;52.462;16.898;2023-08-12T00:26:17;9.98;;;5.03;;
32872;SDS011;19224;52.462;16.898;2023-08-12T00:28:48;12.50;;;5.17;;
32872;SDS011;19224;52.462;16.898;2023-08-12T00:31:19;10.38;;;5.53;;
32872;SDS011;19224;52.462;16.898;2023-08-12T00:33:49;10.93;;;4.75;;
32872;SDS011;19224;52.462;16.898;2023-08-12T00:36:20;11.28;;;5.20;;
32872;SDS011;19224;52.462;16.898;2023-08-12T00:38:50;11.97;;;5.12;;
32872;SDS011;19224;52.462;16.898;2023-08-12T00:41:20;9.35;;;4.87;;
32872;SDS011;19224;52.462;16.898;2023-08-12T00:43:51;9.73;;;4.97;;
32872;SDS011;19224;52.462;16.898;2023-08-12T00:46:22;9.13;;;5.42;;
32872;SDS011;19224;52.462;16.898;2023-08-12T00:48:53;9.05;;;5.25;;
32872;SDS011;19224;52.462;16.898;2023-08-12T00:51:24;9.48;;;5.08;;
32872;SDS011;19224;52.462;16.898;2023-08-12T00:53:54;10.18;;;5.20;;
32872;SDS011;19224;52.462;16.898;2023-08-12T00:56:27;10.78;;;5.15;;
32872;SDS011;19224;52.462;16.898;2023-08-12T00:58:59;11.25;;;5.03;;
32872;SDS011;19224;52.462;16.898;2023-08-12T01:01:32;11.57;;;5.70;;
32872;SDS011;19224;52.462;16.898;2023-08-12T01:04:03;10.43;;;5.45;;
32872;SDS011;19224;52.462;16.898;2023-08-12T01:06:34;9.18;;;5.33;;
32872;SDS011;19224;52.462;16.898;2023-08-12T01:09:05;9.63;;;5.17;;
32872;SDS011;19224;52.462;16.898;2023-08-12T01:11:38;12.23;;;5.53;;
32872;SDS011;19224;52.462;16.898;2023-08-12T01:17:00;13.45;;;5.85;;
32872;SDS011;19224;52.462;16.898;2023-08-12T01:19:36;10.23;;;5.53;;
32872;SDS011;19224;52.462;16.898;2023-08-12T01:22:08;12.85;;;5.70;;
32872;SDS011;19224;52.462;16.898;2023-08-12T01:24:42;12.33;;;5.67;;
32872;SDS011;19224;52.462;16.898;2023-08-12T01:27:13;10.93;;;5.90;;
32872;SDS011;19224;52.462;16.898;2023-08-12T01:29:48;11.73;;;5.70;;
32872;SDS011;19224;52.462;16.898;2023-08-12T01:35:21;13.72;;;5.72;;
32872;SDS011;19224;52.462;16.898;2023-08-12T01:38:10;10.08;;;5.90;;
32872;SDS011;19224;52.462;16.898;2023-08-12T01:40:41;10.65;;;5.83;;
32872;SDS011;19224;52.462;16.898;2023-08-12T01:43:14;11.10;;;5.95;;
32872;SDS011;19224;52.462;16.898;2023-08-12T01:45:44;13.98;;;5.80;;
32872;SDS011;19224;52.462;16.898;2023-08-12T01:48:15;13.53;;;6.53;;
32872;SDS011;19224;52.462;16.898;2023-08-12T01:50:47;12.80;;;6.28;;
32872;SDS011;19224;52.462;16.898;2023-08-12T01:53:17;13.32;;;6.30;;
32872;SDS011;19224;52.462;16.898;2023-08-12T01:55:48;10.03;;;5.95;;
32872;SDS011;19224;52.462;16.898;2023-08-12T01:58:21;10.45;;;5.95;;
32872;SDS011;19224;52.462;16.898;2023-08-12T02:00:51;9.43;;;5.95;;
32872;SDS011;19224;52.462;16.898;2023-08-12T02:03:22;12.18;;;6.30;;
32872;SDS011;19224;52.462;16.898;2023-08-12T02:05:52;11.55;;;5.90;;
32872;SDS011;19224;52.462;16.898;2023-08-12T02:08:22;18.87;;;6.70;;
32872;SDS011;19224;52.462;16.898;2023-08-12T02:10:53;11.95;;;5.95;;
32872;SDS011;19224;52.462;16.898;2023-08-12T02:13:23;13.03;;;6.47;;
32872;SDS011;19224;52.462;16.898;2023-08-12T02:15:53;12.18;;;6.37;;
32872;SDS011;19224;52.462;16.898;2023-08-12T02:18:24;18.60;;;6.85;;
32872;SDS011;19224;52.462;16.898;2023-08-12T02:20:54;11.48;;;6.22;;
32872;SDS011;19224;52.462;16.898;2023-08-12T02:23:24;13.08;;;6.67;;
32872;SDS011;19224;52.462;16.898;2023-08-12T02:25:54;13.58;;;6.37;;
32872;SDS011;19224;52.462;16.898;2023-08-12T02:28:25;11.10;;;6.22;;
32872;SDS011;19224;52.462;16.898;2023-08-12T02:30:55;17.25;;;7.30;;
32872;SDS011;19224;52.462;16.898;2023-08-12T02:33:26;14.23;;;6.08;;
32872;SDS011;19224;52.462;16.898;2023-08-12T02:35:56;9.98;;;6.45;;
32872;SDS011;19224;52.462;16.898;2023-08-12T02:38:26;12.93;;;6.87;;
32872;SDS011;19224;52.462;16.898;2023-08-12T02:40:57;12.40;;;7.15;;
32872;SDS011;19224;52.462;16.898;2023-08-12T02:43:27;16.60;;;6.92;;
32872;SDS011;19224;52.462;16.898;2023-08-12T02:45:57;16.15;;;6.90;;
32872;SDS011;19224;52.462;16.898;2023-08-12T02:48:27;14.30;;;6.83;;
32872;SDS011;19224;52.462;16.898;2023-08-12T02:50:58;10.40;;;7.37;;
32872;SDS011;19224;52.462;16.898;2023-08-12T02:53:28;10.40;;;6.62;;
32872;SDS011;19224;52.462;16.898;2023-08-12T02:55:59;11.95;;;7.00;;
32872;SDS011;19224;52.462;16.898;2023-08-12T02:58:29;9.90;;;6.70;;
32872;SDS011;19224;52.462;16.898;2023-08-12T03:01:00;12.98;;;7.33;;
32872;SDS011;19224;52.462;16.898;2023-08-12T03:03:31;11.78;;;6.25;;
32872;SDS011;19224;52.462;16.898;2023-08-12T03:06:02;14.50;;;6.97;;
32872;SDS011;19224;52.462;16.898;2023-08-12T03:08:33;16.62;;;6.70;;
32872;SDS011;19224;52.462;16.898;2023-08-12T03:11:03;13.62;;;7.03;;
32872;SDS011;19224;52.462;16.898;2023-08-12T03:13:33;13.20;;;6.85;;
32872;SDS011;19224;52.462;16.898;2023-08-12T03:16:04;14.93;;;6.70;;
32872;SDS011;19224;52.462;16.898;2023-08-12T03:18:42;9.35;;;6.33;;
32872;SDS011;19224;52.462;16.898;2023-08-12T03:21:12;18.98;;;7.08;;
32872;SDS011;19224;52.462;16.898;2023-08-12T03:23:43;14.15;;;7.22;;
32872;SDS011;19224;52.462;16.898;2023-08-12T03:26:13;12.50;;;6.97;;
32872;SDS011;19224;52.462;16.898;2023-08-12T03:28:43;12.93;;;7.67;;
32872;SDS011;19224;52.462;16.898;2023-08-12T03:31:14;13.10;;;7.17;;
32872;SDS011;19224;52.462;16.898;2023-08-12T03:33:44;16.25;;;7.30;;
32872;SDS011;19224;52.462;16.898;2023-08-12T03:36:14;16.50;;;7.30;;
32872;SDS011;19224;52.462;16.898;2023-08-12T03:38:45;14.95;;;7.35;;
32872;SDS011;19224;52.462;16.898;2023-08-12T03:41:15;18.67;;;7.17;;
32872;SDS011;19224;52.462;16.898;2023-08-12T03:43:45;13.38;;;6.90;;
32872;SDS011;19224;52.462;16.898;2023-08-12T03:46:16;13.55;;;7.25;;
32872;SDS011;19224;52.462;16.898;2023-08-12T03:48:47;16.12;;;7.50;;
32872;SDS011;19224;52.462;16.898;2023-08-12T03:51:17;18.42;;;7.42;;
32872;SDS011;19224;52.462;16.898;2023-08-12T03:53:47;12.70;;;7.00;;
32872;SDS011;19224;52.462;16.898;2023-08-12T03:56:18;10.43;;;6.60;;
32872;SDS011;19224;52.462;16.898;2023-08-12T03:58:48;11.28;;;6.78;;
32872;SDS011;19224;52.462;16.898;2023-08-12T04:01:18;15.28;;;6.83;;
32872;SDS011;19224;52.462;16.898;2023-08-12T04:03:49;12.88;;;7.40;;
32872;SDS011;19224;52.462;16.898;2023-08-12T04:06:20;15.75;;;7.78;;
32872;SDS011;19224;52.462;16.898;2023-08-12T04:08:50;13.32;;;8.20;;
32872;SDS011;19224;52.462;16.898;2023-08-12T04:11:20;13.38;;;7.37;;
32872;SDS011;19224;52.462;16.898;2023-08-12T04:13:50;14.45;;;7.87;;
32872;SDS011;19224;52.462;16.898;2023-08-12T04:16:21;17.65;;;8.03;;
32872;SDS011;19224;52.462;16.898;2023-08-12T04:18:51;17.82;;;8.70;;
32872;SDS011;19224;52.462;16.898;2023-08-12T04:21:22;15.58;;;7.85;;
32872;SDS011;19224;52.462;16.898;2023-08-12T04:23:52;15.88;;;7.95;;
32872;SDS011;19224;52.462;16.898;2023-08-12T04:26:23;13.72;;;7.25;;
32872;SDS011;19224;52.462;16.898;2023-08-12T04:28:53;17.52;;;7.75;;
32872;SDS011;19224;52.462;16.898;2023-08-12T04:31:23;15.85;;;7.62;;
32872;SDS011;19224;52.462;16.898;2023-08-12T04:33:53;13.70;;;7.33;;
32872;SDS011;19224;52.462;16.898;2023-08-12T04:36:23;12.80;;;7.42;;
32872;SDS011;19224;52.462;16.898;2023-08-12T04:38:54;14.07;;;8.38;;
32872;SDS011;19224;52.462;16.898;2023-08-12T04:41:24;23.87;;;8.80;;
32872;SDS011;19224;52.462;16.898;2023-08-12T04:43:55;15.50;;;8.08;;
32872;SDS011;19224;52.462;16.898;2023-08-12T04:46:26;15.15;;;8.23;;
32872;SDS011;19224;52.462;16.898;2023-08-12T04:48:56;12.45;;;7.62;;
32872;SDS011;19224;52.462;16.898;2023-08-12T04:51:26;13.90;;;8.30;;
32872;SDS011;19224;52.462;16.898;2023-08-12T04:53:56;16.57;;;8.20;;
32872;SDS011;19224;52.462;16.898;2023-08-12T04:56:29;17.10;;;9.05;;
32872;SDS011;19224;52.462;16.898;2023-08-12T04:58:59;14.33;;;8.08;;
32872;SDS011;19224;52.462;16.898;2023-08-12T05:01:29;18.77;;;8.78;;
32872;SDS011;19224;52.462;16.898;2023-08-12T05:04:00;16.15;;;8.13;;
32872;SDS011;19224;52.462;16.898;2023-08-12T05:06:30;14.20;;;7.97;;
32872;SDS011;19224;52.462;16.898;2023-08-12T05:09:01;14.03;;;8.05;;
32872;SDS011;19224;52.462;16.898;2023-08-12T05:11:31;13.00;;;7.83;;
32872;SDS011;19224;52.462;16.898;2023-08-12T05:14:01;15.35;;;8.58;;
32872;SDS011;19224;52.462;16.898;2023-08-12T05:16:32;17.00;;;8.53;;
32872;SDS011;19224;52.462;16.898;2023-08-12T05:19:02;9.75;;;7.72;;
32872;SDS011;19224;52.462;16.898;2023-08-12T05:21:33;12.30;;;7.90;;
32872;SDS011;19224;52.462;16.898;2023-08-12T05:24:03;19.02;;;8.20;;
32872;SDS011;19224;52.462;16.898;2023-08-12T05:26:34;13.32;;;8.15;;
32872;SDS011;19224;52.462;16.898;2023-08-12T05:29:05;14.28;;;8.15;;
32872;SDS011;19224;52.462;16.898;2023-08-12T05:31:35;13.78;;;8.28;;
32872;SDS011;19224;52.462;16.898;2023-08-12T05:34:06;12.60;;;7.25;;
32872;SDS011;19224;52.462;16.898;2023-08-12T05:36:36;12.73;;;7.75;;
32872;SDS011;19224;52.462;16.898;2023-08-12T05:39:06;13.83;;;7.45;;
32872;SDS011;19224;52.462;16.898;2023-08-12T05:41:37;15.25;;;7.78;;
32872;SDS011;19224;52.462;16.898;2023-08-12T05:44:07;12.10;;;7.80;;
32872;SDS011;19224;52.462;16.898;2023-08-12T05:46:37;19.42;;;8.05;;
32872;SDS011;19224;52.462;16.898;2023-08-12T05:49:08;13.15;;;7.62;;
32872;SDS011;19224;52.462;16.898;2023-08-12T05:51:38;13.08;;;6.95;;
32872;SDS011;19224;52.462;16.898;2023-08-12T05:54:09;11.60;;;7.25;;
32872;SDS011;19224;52.462;16.898;2023-08-12T05:56:39;15.95;;;6.92;;
32872;SDS011;19224;52.462;16.898;2023-08-12T05:59:09;10.30;;;6.83;;
32872;SDS011;19224;52.462;16.898;2023-08-12T06:01:40;10.28;;;7.28;;
32872;SDS011;19224;52.462;16.898;2023-08-12T06:04:10;15.18;;;7.65;;
32872;SDS011;19224;52.462;16.898;2023-08-12T06:06:40;13.53;;;6.10;;
32872;SDS011;19224;52.462;16.898;2023-08-12T06:09:11;10.30;;;5.95;;
32872;SDS011;19224;52.462;16.898;2023-08-12T06:11:41;10.93;;;6.10;;
32872;SDS011;19224;52.462;16.898;2023-08-12T06:14:12;10.85;;;5.80;;
32872;SDS011;19224;52.462;16.898;2023-08-12T06:16:42;10.85;;;6.05;;
32872;SDS011;19224;52.462;16.898;2023-08-12T06:19:12;14.53;;;6.37;;
32872;SDS011;19224;52.462;16.898;2023-08-12T06:21:43;12.43;;;5.92;;
32872;SDS011;19224;52.462;16.898;2023-08-12T06:24:13;11.08;;;5.60;;
32872;SDS011;19224;52.462;16.898;2023-08-12T06:26:43;8.03;;;5.60;;
32872;SDS011;19224;52.462;16.898;2023-08-12T06:29:14;10.53;;;5.30;;
32872;SDS011;19224;52.462;16.898;2023-08-12T06:31:44;17.12;;;8.90;;
32872;SDS011;19224;52.462;16.898;2023-08-12T06:34:15;10.60;;;6.72;;
32872;SDS011;19224;52.462;16.898;2023-08-12T06:36:45;8.65;;;5.40;;
32872;SDS011;19224;52.462;16.898;2023-08-12T06:39:15;9.58;;;4.78;;
32872;SDS011;19224;52.462;16.898;2023-08-12T06:41:45;11.50;;;5.70;;
32872;SDS011;19224;52.462;16.898;2023-08-12T06:44:16;11.70;;;5.87;;
32872;SDS011;19224;52.462;16.898;2023-08-12T06:46:46;7.22;;;4.80;;
32872;SDS011;19224;52.462;16.898;2023-08-12T06:49:16;14.75;;;5.55;;
32872;SDS011;19224;52.462;16.898;2023-08-12T06:51:47;10.95;;;4.37;;
32872;SDS011;19224;52.462;16.898;2023-08-12T06:54:17;7.87;;;4.30;;
32872;SDS011;19224;52.462;16.898;2023-08-12T06:56:49;10.25;;;4.60;;
32872;SDS011;19224;52.462;16.898;2023-08-12T06:59:20;9.00;;;4.42;;
32872;SDS011;19224;52.462;16.898;2023-08-12T07:01:50;10.20;;;4.20;;
32872;SDS011;19224;52.462;16.898;2023-08-12T07:04:20;11.83;;;4.42;;
32872;SDS011;19224;52.462;16.898;2023-08-12T07:06:51;13.70;;;4.35;;
32872;SDS011;19224;52.462;16.898;2023-08-12T07:09:22;9.40;;;4.58;;
32872;SDS011;19224;52.462;16.898;2023-08-12T07:11:52;8.98;;;4.42;;
32872;SDS011;19224;52.462;16.898;2023-08-12T07:14:22;7.95;;;4.47;;
32872;SDS011;19224;52.462;16.898;2023-08-12T07:16:53;7.65;;;4.17;;
32872;SDS011;19224;52.462;16.898;2023-08-12T07:19:24;6.67;;;4.08;;
32872;SDS011;19224;52.462;16.898;2023-08-12T07:21:54;6.80;;;3.72;;
32872;SDS011;19224;52.462;16.898;2023-08-12T07:24:24;10.43;;;4.35;;
32872;SDS011;19224;52.462;16.898;2023-08-12T07:26:55;7.28;;;4.15;;
32872;SDS011;19224;52.462;16.898;2023-08-12T07:29:25;7.58;;;3.70;;
32872;SDS011;19224;52.462;16.898;2023-08-12T07:31:55;8.13;;;4.75;;
32872;SDS011;19224;52.462;16.898;2023-08-12T07:34:25;10.53;;;4.22;;
32872;SDS011;19224;52.462;16.898;2023-08-12T07:36:56;8.25;;;4.15;;
32872;SDS011;19224;52.462;16.898;2023-08-12T07:39:26;5.78;;;3.87;;
32872;SDS011;19224;52.462;16.898;2023-08-12T07:41:57;8.33;;;4.20;;
32872;SDS011;19224;52.462;16.898;2023-08-12T07:44:31;8.50;;;4.15;;
32872;SDS011;19224;52.462;16.898;2023-08-12T07:47:02;8.60;;;4.00;;
32872;SDS011;19224;52.462;16.898;2023-08-12T07:49:36;8.68;;;4.53;;
32872;SDS011;19224;52.462;16.898;2023-08-12T07:52:06;9.33;;;3.90;;
32872;SDS011;19224;52.462;16.898;2023-08-12T07:54:40;5.92;;;3.95;;
32872;SDS011;19224;52.462;16.898;2023-08-12T07:57:11;7.15;;;3.35;;
32872;SDS011;19224;52.462;16.898;2023-08-12T07:59:42;7.92;;;3.65;;
32872;SDS011;19224;52.462;16.898;2023-08-12T08:02:12;7.30;;;3.58;;
32872;SDS011;19224;52.462;16.898;2023-08-12T08:04:42;5.00;;;3.40;;
32872;SDS011;19224;52.462;16.898;2023-08-12T08:07:17;5.87;;;3.27;;
32872;SDS011;19224;52.462;16.898;2023-08-12T08:09:48;7.90;;;3.45;;
32872;SDS011;19224;52.462;16.898;2023-08-12T08:12:20;6.53;;;3.30;;
32872;SDS011;19224;52.462;16.898;2023-08-12T08:14:51;4.62;;;3.67;;
32872;SDS011;19224;52.462;16.898;2023-08-12T08:17:21;6.47;;;3.37;;
32872;SDS011;19224;52.462;16.898;2023-08-12T08:19:53;4.85;;;3.20;;
32872;SDS011;19224;52.462;16.898;2023-08-12T08:22:24;7.28;;;3.62;;
32872;SDS011;19224;52.462;16.898;2023-08-12T08:24:54;6.50;;;3.70;;
32872;SDS011;19224;52.462;16.898;2023-08-12T08:27:24;7.30;;;3.65;;
32872;SDS011;19224;52.462;16.898;2023-08-12T08:29:55;6.80;;;3.10;;
32872;SDS011;19224;52.462;16.898;2023-08-12T08:32:25;5.35;;;3.12;;
32872;SDS011;19224;52.462;16.898;2023-08-12T08:34:56;5.58;;;3.27;;
32872;SDS011;19224;52.462;16.898;2023-08-12T08:37:27;5.33;;;3.17;;
32872;SDS011;19224;52.462;16.898;2023-08-12T08:39:57;7.50;;;3.15;;
32872;SDS011;19224;52.462;16.898;2023-08-12T08:42:27;7.92;;;3.20;;
32872;SDS011;19224;52.462;16.898;2023-08-12T08:44:58;6.80;;;2.70;;
32872;SDS011;19224;52.462;16.898;2023-08-12T08:47:31;9.23;;;3.17;;
32872;SDS011;19224;52.462;16.898;2023-08-12T08:50:01;6.67;;;3.00;;
32872;SDS011;19224;52.462;16.898;2023-08-12T08:52:33;6.22;;;2.90;;
32872;SDS011;19224;52.462;16.898;2023-08-12T08:55:06;5.60;;;3.20;;
32872;SDS011;19224;52.462;16.898;2023-08-12T08:57:37;4.67;;;2.55;;
32872;SDS011;19224;52.462;16.898;2023-08-12T09:00:08;6.08;;;2.50;;
32872;SDS011;19224;52.462;16.898;2023-08-12T09:02:40;6.12;;;2.80;;
32872;SDS011;19224;52.462;16.898;2023-08-12T09:05:14;8.45;;;2.75;;
32872;SDS011;19224;52.462;16.898;2023-08-12T09:07:45;4.78;;;2.75;;
32872;SDS011;19224;52.462;16.898;2023-08-12T09:10:18;9.08;;;2.83;;
32872;SDS011;19224;52.462;16.898;2023-08-12T09:12:52;4.20;;;2.60;;
32872;SDS011;19224;52.462;16.898;2023-08-12T09:15:26;4.22;;;2.50;;
32872;SDS011;19224;52.462;16.898;2023-08-12T09:17:56;8.78;;;2.90;;
32872;SDS011;19224;52.462;16.898;2023-08-12T09:20:27;8.90;;;3.08;;
32872;SDS011;19224;52.462;16.898;2023-08-12T09:22:58;8.78;;;2.58;;
32872;SDS011;19224;52.462;16.898;2023-08-12T09:25:30;4.70;;;2.90;;
32872;SDS011;19224;52.462;16.898;2023-08-12T09:28:03;4.35;;;2.50;;
32872;SDS011;19224;52.462;16.898;2023-08-12T09:30:33;8.45;;;2.85;;
32872;SDS011;19224;52.462;16.898;2023-08-12T09:33:04;8.60;;;3.05;;
32872;SDS011;19224;52.462;16.898;2023-08-12T09:35:39;6.17;;;3.20;;
32872;SDS011;19224;52.462;16.898;2023-08-12T09:38:12;6.03;;;2.90;;
32872;SDS011;19224;52.462;16.898;2023-08-12T09:40:42;7.37;;;2.83;;
32872;SDS011;19224;52.462;16.898;2023-08-12T09:43:15;7.12;;;2.83;;
32872;SDS011;19224;52.462;16.898;2023-08-12T09:45:46;5.10;;;2.65;;
32872;SDS011;19224;52.462;16.898;2023-08-12T09:48:16;6.28;;;2.60;;
32872;SDS011;19224;52.462;16.898;2023-08-12T09:50:46;7.00;;;2.50;;
32872;SDS011;19224;52.462;16.898;2023-08-12T09:53:18;8.70;;;2.83;;
32872;SDS011;19224;52.462;16.898;2023-08-12T09:55:50;5.90;;;2.52;;
32872;SDS011;19224;52.462;16.898;2023-08-12T09:58:23;4.90;;;2.42;;
32872;SDS011;19224;52.462;16.898;2023-08-12T10:00:56;4.75;;;2.20;;
32872;SDS011;19224;52.462;16.898;2023-08-12T10:03:29;4.20;;;2.65;;
32872;SDS011;19224;52.462;16.898;2023-08-12T10:06:02;4.90;;;2.55;;
32872;SDS011;19224;52.462;16.898;2023-08-12T10:08:34;6.53;;;2.37;;
32872;SDS011;19224;52.462;16.898;2023-08-12T10:11:06;4.95;;;2.77;;
32872;SDS011;19224;52.462;16.898;2023-08-12T10:13:39;4.75;;;2.40;;
32872;SDS011;19224;52.462;16.898;2023-08-12T10:16:11;2.75;;;2.30;;
32872;SDS011;19224;52.462;16.898;2023-08-12T10:18:41;5.05;;;2.65;;
32872;SDS011;19224;52.462;16.898;2023-08-12T10:21:14;3.45;;;2.52;;
32872;SDS011;19224;52.462;16.898;2023-08-12T10:23:46;7.28;;;2.72;;
32872;SDS011;19224;52.462;16.898;2023-08-12T10:26:18;9.48;;;3.02;;
32872;SDS011;19224;52.462;16.898;2023-08-12T10:28:49;4.53;;;2.70;;
32872;SDS011;19224;52.462;16.898;2023-08-12T10:31:20;5.67;;;3.12;;
32872;SDS011;19224;52.462;16.898;2023-08-12T10:33:51;10.03;;;2.55;;
32872;SDS011;19224;52.462;16.898;2023-08-12T10:36:22;9.50;;;3.10;;
32872;SDS011;19224;52.462;16.898;2023-08-12T10:38:56;3.58;;;2.45;;
32872;SDS011;19224;52.462;16.898;2023-08-12T10:41:26;10.60;;;2.67;;
32872;SDS011;19224;52.462;16.898;2023-08-12T10:44:01;4.47;;;2.42;;
32872;SDS011;19224;52.462;16.898;2023-08-12T10:46:35;8.13;;;2.50;;
32872;SDS011;19224;52.462;16.898;2023-08-12T10:49:10;3.60;;;2.25;;
32872;SDS011;19224;52.462;16.898;2023-08-12T11:02:20;5.33;;;2.27;;
32872;SDS011;19224;52.462;16.898;2023-08-12T11:05:01;5.37;;;2.15;;
32872;SDS011;19224;52.462;16.898;2023-08-12T11:07:49;6.58;;;2.17;;
32872;SDS011;19224;52.462;16.898;2023-08-12T11:10:32;5.58;;;2.50;;
32872;SDS011;19224;52.462;16.898;2023-08-12T11:13:03;4.92;;;2.27;;
32872;SDS011;19224;52.462;16.898;2023-08-12T11:18:10;9.28;;;3.20;;
32872;SDS011;19224;52.462;16.898;2023-08-12T11:20:47;11.65;;;2.95;;
32872;SDS011;19224;52.462;16.898;2023-08-12T11:23:19;11.30;;;3.10;;
32872;SDS011;19224;52.462;16.898;2023-08-12T11:25:49;3.90;;;2.58;;
32872;SDS011;19224;52.462;16.898;2023-08-12T11:28:21;3.27;;;2.35;;
32872;SDS011;19224;52.462;16.898;2023-08-12T11:30:53;6.95;;;2.62;;
32872;SDS011;19224;52.462;16.898;2023-08-12T11:33:25;4.00;;;2.50;;
32872;SDS011;19224;52.462;16.898;2023-08-12T11:35:56;4.47;;;2.50;;
32872;SDS011;19224;52.462;16.898;2023-08-12T11:38:27;3.27;;;1.87;;
32872;SDS011;19224;52.462;16.898;2023-08-12T11:41:04;6.10;;;2.40;;
32872;SDS011;19224;52.462;16.898;2023-08-12T11:43:33;4.92;;;2.20;;
32872;SDS011;19224;52.462;16.898;2023-08-12T11:46:03;2.92;;;1.90;;
32872;SDS011;19224;52.462;16.898;2023-08-12T11:48:34;4.20;;;2.30;;
32872;SDS011;19224;52.462;16.898;2023-08-12T11:51:04;3.27;;;2.20;;
32872;SDS011;19224;52.462;16.898;2023-08-12T11:53:34;7.05;;;2.20;;
32872;SDS011;19224;52.462;16.898;2023-08-12T11:56:05;5.92;;;2.35;;
32872;SDS011;19224;52.462;16.898;2023-08-12T11:58:36;4.28;;;2.25;;
32872;SDS011;19224;52.462;16.898;2023-08-12T12:01:07;3.80;;;1.92;;
32872;SDS011;19224;52.462;16.898;2023-08-12T12:03:38;5.45;;;2.10;;
32872;SDS011;19224;52.462;16.898;2023-08-12T12:06:08;4.60;;;1.95;;
32872;SDS011;19224;52.462;16.898;2023-08-12T12:08:40;4.90;;;2.20;;
32872;SDS011;19224;52.462;16.898;2023-08-12T12:11:13;3.35;;;1.90;;
32872;SDS011;19224;52.462;16.898;2023-08-12T12:13:45;5.25;;;2.20;;
32872;SDS011;19224;52.462;16.898;2023-08-12T12:16:18;3.42;;;1.95;;
32872;SDS011;19224;52.462;16.898;2023-08-12T12:18:48;4.75;;;2.17;;
32872;SDS011;19224;52.462;16.898;2023-08-12T12:21:20;5.37;;;2.15;;
32872;SDS011;19224;52.462;16.898;2023-08-12T12:23:52;5.00;;;1.87;;
32872;SDS011;19224;52.462;16.898;2023-08-12T12:26:23;2.95;;;2.15;;
32872;SDS011;19224;52.462;16.898;2023-08-12T12:28:54;2.45;;;1.92;;
32872;SDS011;19224;52.462;16.898;2023-08-12T12:31:24;6.85;;;2.22;;
32872;SDS011;19224;52.462;16.898;2023-08-12T12:33:54;3.35;;;1.95;;
32872;SDS011;19224;52.462;16.898;2023-08-12T12:36:24;4.42;;;2.00;;
32872;SDS011;19224;52.462;16.898;2023-08-12T12:38:55;4.03;;;2.00;;
32872;SDS011;19224;52.462;16.898;2023-08-12T12:41:25;8.68;;;2.20;;
32872;SDS011;19224;52.462;16.898;2023-08-12T12:43:56;4.12;;;1.98;;
32872;SDS011;19224;52.462;16.898;2023-08-12T12:46:26;6.95;;;2.17;;
32872;SDS011;19224;52.462;16.898;2023-08-12T12:48:57;3.02;;;2.15;;
32872;SDS011;19224;52.462;16.898;2023-08-12T12:51:27;3.30;;;2.40;;
32872;SDS011;19224;52.462;16.898;2023-08-12T12:53:58;8.58;;;2.52;;
32872;SDS011;19224;52.462;16.898;2023-08-12T12:56:28;5.45;;;2.33;;
32872;SDS011;19224;52.462;16.898;2023-08-12T12:58:59;3.17;;;2.33;;
32872;SDS011;19224;52.462;16.898;2023-08-12T13:01:29;6.35;;;2.45;;
32872;SDS011;19224;52.462;16.898;2023-08-12T13:03:59;4.62;;;2.20;;
32872;SDS011;19224;52.462;16.898;2023-08-12T13:06:30;6.28;;;2.60;;
32872;SDS011;19224;52.462;16.898;2023-08-12T13:09:01;6.10;;;2.15;;
32872;SDS011;19224;52.462;16.898;2023-08-12T13:11:32;2.47;;;1.95;;
32872;SDS011;19224;52.462;16.898;2023-08-12T13:14:03;3.30;;;2.05;;
32872;SDS011;19224;52.462;16.898;2023-08-12T13:16:34;5.95;;;2.25;;
32872;SDS011;19224;52.462;16.898;2023-08-12T13:19:05;3.50;;;2.12;;
32872;SDS011;19224;52.462;16.898;2023-08-12T13:21:35;3.40;;;2.15;;
32872;SDS011;19224;52.462;16.898;2023-08-12T13:24:05;4.70;;;2.30;;
32872;SDS011;19224;52.462;16.898;2023-08-12T13:26:36;6.80;;;2.35;;
32872;SDS011;19224;52.462;16.898;2023-08-12T13:29:06;5.12;;;2.33;;
32872;SDS011;19224;52.462;16.898;2023-08-12T13:31:36;7.25;;;2.47;;
32872;SDS011;19224;52.462;16.898;2023-08-12T13:34:07;2.83;;;2.30;;
32872;SDS011;19224;52.462;16.898;2023-08-12T13:36:38;3.30;;;2.37;;
32872;SDS011;19224;52.462;16.898;2023-08-12T13:39:08;5.30;;;2.45;;
32872;SDS011;19224;52.462;16.898;2023-08-12T13:41:38;4.47;;;2.33;;
32872;SDS011;19224;52.462;16.898;2023-08-12T13:44:10;3.98;;;2.30;;
32872;SDS011;19224;52.462;16.898;2023-08-12T13:46:41;6.00;;;2.47;;
32872;SDS011;19224;52.462;16.898;2023-08-12T13:49:11;7.70;;;2.20;;
32872;SDS011;19224;52.462;16.898;2023-08-12T13:51:42;2.40;;;2.20;;
32872;SDS011;19224;52.462;16.898;2023-08-12T13:54:12;7.15;;;2.30;;
32872;SDS011;19224;52.462;16.898;2023-08-12T13:56:42;6.08;;;2.40;;
32872;SDS011;19224;52.462;16.898;2023-08-12T13:59:13;6.80;;;2.67;;
32872;SDS011;19224;52.462;16.898;2023-08-12T14:01:43;4.85;;;2.10;;
32872;SDS011;19224;52.462;16.898;2023-08-12T14:04:13;5.47;;;2.20;;
32872;SDS011;19224;52.462;16.898;2023-08-12T14:06:44;4.70;;;2.40;;
32872;SDS011;19224;52.462;16.898;2023-08-12T14:09:15;4.35;;;2.60;;
32872;SDS011;19224;52.462;16.898;2023-08-12T14:11:47;2.50;;;2.30;;
32872;SDS011;19224;52.462;16.898;2023-08-12T14:14:17;3.02;;;2.20;;
32872;SDS011;19224;52.462;16.898;2023-08-12T14:16:48;3.52;;;2.20;;
32872;SDS011;19224;52.462;16.898;2023-08-12T14:19:18;5.53;;;2.50;;
32872;SDS011;19224;52.462;16.898;2023-08-12T14:21:49;3.83;;;2.30;;
32872;SDS011;19224;52.462;16.898;2023-08-12T14:24:19;4.12;;;2.52;;
32872;SDS011;19224;52.462;16.898;2023-08-12T14:26:50;7.37;;;2.22;;
32872;SDS011;19224;52.462;16.898;2023-08-12T14:29:20;4.17;;;2.47;;
32872;SDS011;19224;52.462;16.898;2023-08-12T14:31:51;2.80;;;2.15;;
32872;SDS011;19224;52.462;16.898;2023-08-12T14:34:22;5.90;;;2.60;;
32872;SDS011;19224;52.462;16.898;2023-08-12T14:36:53;3.77;;;2.30;;
32872;SDS011;19224;52.462;16.898;2023-08-12T14:39:23;8.23;;;2.90;;
32872;SDS011;19224;52.462;16.898;2023-08-12T14:41:54;5.33;;;2.52;;
32872;SDS011;19224;52.462;16.898;2023-08-12T14:44:24;5.45;;;2.55;;
32872;SDS011;19224;52.462;16.898;2023-08-12T14:46:54;6.33;;;2.60;;
32872;SDS011;19224;52.462;16.898;2023-08-12T14:49:25;6.92;;;2.60;;
32872;SDS011;19224;52.462;16.898;2023-08-12T14:51:55;3.50;;;2.40;;
32872;SDS011;19224;52.462;16.898;2023-08-12T14:54:25;2.65;;;2.10;;
32872;SDS011;19224;52.462;16.898;2023-08-12T14:56:56;6.90;;;2.52;;
32872;SDS011;19224;52.462;16.898;2023-08-12T14:59:26;5.83;;;2.50;;
32872;SDS011;19224;52.462;16.898;2023-08-12T15:01:57;6.78;;;2.77;;
32872;SDS011;19224;52.462;16.898;2023-08-12T15:04:27;2.72;;;2.50;;
32872;SDS011;19224;52.462;16.898;2023-08-12T15:06:58;5.87;;;2.30;;
32872;SDS011;19224;52.462;16.898;2023-08-12T15:09:28;2.80;;;2.05;;